LIPSLIPR

Guest
Details From LIPS - Istrana
To LIPR - Rimini Mil
Flight Number -
Tags Generated
Created
Modified
Stats Distance 102 nm / 189 km
Max Altitude 0 ft / 0 m
Waypoints 2
Social Downloads 0
Likes 0
Share VATSIM

Download

Looking for another format? Having issues loading an existing format? Contact us
Advertisement - Login to hide

Notes

Generated

Route

LIPS LIPR

ID Type Via Altitude Latitude Longitude Leg Dist Tot Dist Heading (true) Name
O LIPS APT - 0 ft / 0 m 45.68257˚ 12.06821˚ - 0 nm - -
O LIPR APT - 0 ft / 0 m 44.02853˚ 12.59696˚ 101 nm 101 nm 167° / 167° -

Altitude Profile

Advertisement - Login to hide

LIPS

Details ICAO LIPS
Name Istrana
Region Italy
Timezone Europe/Rome (UTC+2.0)
Stats Elevation 137 ft / 42 m (AMSL)
Location 45.684441° 12.087231°
Runways 1
Magnetic Variation 3.181° E

METAR

LIPS 231255Z 27001KT 9999 SCT030 SCT070 22/16 Q1016 RMK OVC BKN200 VIS MIN 9999 WIND THR26 /////KT WIND THR08 23002KT BLU

Decode

TAF

Not found

Departure Runways

ID Width Length Bearing (true) Bearing (mag) Surface Threshold Offset Overrun Length
08 105 ft / 32 m 9,791 ft / 2,984 m 81.97° 78.79° Asphalt 956 ft / 291 m 0 ft / 0 m
26 105 ft / 32 m 9,791 ft / 2,984 m 262.00° 258.82° Asphalt 953 ft / 290 m 0 ft / 0 m

LIPR

Details ICAO LIPR (RMI)
Name Rimini Mil
Region Italy
Timezone Europe/Rome (UTC+2.0)
Stats Elevation 41 ft / 12 m (AMSL)
Location 44.020286° 12.611746°
Runways 1
Magnetic Variation 3.215° E

METAR

LIPR 231315Z 07006KT 9999 SCT020 SCT070 20/17 Q1015

Decode

TAF

Not found

Destination Runways

ID Width Length Bearing (true) Bearing (mag) Surface Threshold Offset Overrun Length
13 148 ft / 45 m 9,818 ft / 2,992 m 127.79° 124.57° Asphalt 1,030 ft / 314 m 846 ft / 258 m
31 148 ft / 45 m 9,818 ft / 2,992 m 307.81° 304.59° Asphalt 1,006 ft / 307 m 376 ft / 115 m

Approach Navaids

Runway Type Ident Frequency Range Bearing (true) Bearing (mag) Slope Elevation
31 Localiser MIR 109.30 MHz 18 nm / 33 km 307.77° 304.56° - 41 ft / 12 m (AMSL)
31 Glidescope MIR 109.30 MHz 10 nm / 19 km 307.80° 304.58° 3.00° 41 ft / 12 m (AMSL)